sensor_id;sensor_type;location;lat;lon;timestamp;temperature;humidity
79491;SHT31;68950;53.098;18.032;2023-05-08T00:01:24;19.03;53.58
79491;SHT31;68950;53.098;18.032;2023-05-08T00:03:51;19.02;53.59
79491;SHT31;68950;53.098;18.032;2023-05-08T00:06:17;19.02;53.60
79491;SHT31;68950;53.098;18.032;2023-05-08T00:08:44;19.00;53.60
79491;SHT31;68950;53.098;18.032;2023-05-08T00:11:11;18.99;53.60
79491;SHT31;68950;53.098;18.032;2023-05-08T00:13:38;19.00;53.60
79491;SHT31;68950;53.098;18.032;2023-05-08T00:16:07;18.99;53.60
79491;SHT31;68950;53.098;18.032;2023-05-08T00:18:34;18.97;53.63
79491;SHT31;68950;53.098;18.032;2023-05-08T00:21:03;18.98;53.65
79491;SHT31;68950;53.098;18.032;2023-05-08T00:23:31;18.97;53.65
79491;SHT31;68950;53.098;18.032;2023-05-08T00:25:58;18.96;53.68
79491;SHT31;68950;53.098;18.032;2023-05-08T00:28:26;18.96;53.67
79491;SHT31;68950;53.098;18.032;2023-05-08T00:30:52;18.95;53.69
79491;SHT31;68950;53.098;18.032;2023-05-08T00:33:19;18.94;53.69
79491;SHT31;68950;53.098;18.032;2023-05-08T00:35:46;18.93;53.70
79491;SHT31;68950;53.098;18.032;2023-05-08T00:38:13;18.94;53.70
79491;SHT31;68950;53.098;18.032;2023-05-08T00:40:39;18.93;53.70
79491;SHT31;68950;53.098;18.032;2023-05-08T00:43:06;18.92;53.70
79491;SHT31;68950;53.098;18.032;2023-05-08T00:45:36;18.91;53.70
79491;SHT31;68950;53.098;18.032;2023-05-08T00:48:05;18.90;53.70
79491;SHT31;68950;53.098;18.032;2023-05-08T00:50:33;18.89;53.72
79491;SHT31;68950;53.098;18.032;2023-05-08T00:53:01;18.89;53.74
79491;SHT31;68950;53.098;18.032;2023-05-08T00:55:30;18.88;53.73
79491;SHT31;68950;53.098;18.032;2023-05-08T00:57:58;18.87;53.74
79491;SHT31;68950;53.098;18.032;2023-05-08T01:00:25;18.87;53.76
79491;SHT31;68950;53.098;18.032;2023-05-08T01:02:52;18.86;53.77
79491;SHT31;68950;53.098;18.032;2023-05-08T01:05:19;18.86;53.78
79491;SHT31;68950;53.098;18.032;2023-05-08T01:07:45;18.85;53.79
79491;SHT31;68950;53.098;18.032;2023-05-08T01:10:12;18.83;53.80
79491;SHT31;68950;53.098;18.032;2023-05-08T01:12:46;18.83;53.80
79491;SHT31;68950;53.098;18.032;2023-05-08T01:15:32;18.83;53.80
79491;SHT31;68950;53.098;18.032;2023-05-08T01:18:20;18.83;53.80
79491;SHT31;68950;53.098;18.032;2023-05-08T01:30:36;18.79;53.85
79491;SHT31;68950;53.098;18.032;2023-05-08T01:39:38;18.75;53.87
79491;SHT31;68950;53.098;18.032;2023-05-08T01:42:17;18.75;53.90
79491;SHT31;68950;53.098;18.032;2023-05-08T01:44:59;18.73;53.88
79491;SHT31;68950;53.098;18.032;2023-05-08T01:47:36;18.72;53.89
79491;SHT31;68950;53.098;18.032;2023-05-08T01:50:10;18.72;53.90
79491;SHT31;68950;53.098;18.032;2023-05-08T01:52:45;18.71;53.90
79491;SHT31;68950;53.098;18.032;2023-05-08T01:55:26;18.71;53.90
79491;SHT31;68950;53.098;18.032;2023-05-08T01:57:59;18.71;53.90
79491;SHT31;68950;53.098;18.032;2023-05-08T02:00:32;18.70;53.91
79491;SHT31;68950;53.098;18.032;2023-05-08T02:02:59;18.69;53.90
79491;SHT31;68950;53.098;18.032;2023-05-08T02:05:27;18.70;53.90
79491;SHT31;68950;53.098;18.032;2023-05-08T02:07:55;18.69;53.90
79491;SHT31;68950;53.098;18.032;2023-05-08T02:10:24;18.68;53.90
79491;SHT31;68950;53.098;18.032;2023-05-08T02:12:53;18.67;53.95
79491;SHT31;68950;53.098;18.032;2023-05-08T02:15:22;18.68;53.94
79491;SHT31;68950;53.098;18.032;2023-05-08T02:17:53;18.67;53.95
79491;SHT31;68950;53.098;18.032;2023-05-08T02:20:20;18.66;53.95
79491;SHT31;68950;53.098;18.032;2023-05-08T02:22:48;18.65;53.98
79491;SHT31;68950;53.098;18.032;2023-05-08T02:25:16;18.64;53.98
79491;SHT31;68950;53.098;18.032;2023-05-08T02:27:45;18.63;53.99
79491;SHT31;68950;53.098;18.032;2023-05-08T02:30:15;18.64;53.98
79491;SHT31;68950;53.098;18.032;2023-05-08T02:32:43;18.63;53.98
79491;SHT31;68950;53.098;18.032;2023-05-08T02:35:14;18.62;54.00
79491;SHT31;68950;53.098;18.032;2023-05-08T02:37:45;18.60;54.00
79491;SHT31;68950;53.098;18.032;2023-05-08T02:40:17;18.60;54.00
79491;SHT31;68950;53.098;18.032;2023-05-08T02:42:48;18.60;54.00
79491;SHT31;68950;53.098;18.032;2023-05-08T02:45:15;18.59;54.00
79491;SHT31;68950;53.098;18.032;2023-05-08T02:50:43;18.58;54.00
79491;SHT31;68950;53.098;18.032;2023-05-08T02:53:54;18.58;54.00
79491;SHT31;68950;53.098;18.032;2023-05-08T02:56:31;18.57;54.00
79491;SHT31;68950;53.098;18.032;2023-05-08T03:01:42;18.56;54.02
79491;SHT31;68950;53.098;18.032;2023-05-08T03:04:21;18.56;54.02
79491;SHT31;68950;53.098;18.032;2023-05-08T03:06:56;18.55;54.04
79491;SHT31;68950;53.098;18.032;2023-05-08T03:09:25;18.55;54.02
79491;SHT31;68950;53.098;18.032;2023-05-08T03:12:03;18.55;54.03
79491;SHT31;68950;53.098;18.032;2023-05-08T03:14:39;18.53;54.05
79491;SHT31;68950;53.098;18.032;2023-05-08T03:17:14;18.53;54.04
79491;SHT31;68950;53.098;18.032;2023-05-08T03:19:45;18.53;54.05
79491;SHT31;68950;53.098;18.032;2023-05-08T03:22:18;18.53;54.09
79491;SHT31;68950;53.098;18.032;2023-05-08T03:24:46;18.51;54.06
79491;SHT31;68950;53.098;18.032;2023-05-08T03:27:15;18.52;54.09
79491;SHT31;68950;53.098;18.032;2023-05-08T03:29:45;18.51;54.07
79491;SHT31;68950;53.098;18.032;2023-05-08T03:32:13;18.52;54.07
79491;SHT31;68950;53.098;18.032;2023-05-08T03:34:42;18.53;54.09
79491;SHT31;68950;53.098;18.032;2023-05-08T03:37:10;18.53;54.08
79491;SHT31;68950;53.098;18.032;2023-05-08T03:39:37;18.52;54.10
79491;SHT31;68950;53.098;18.032;2023-05-08T03:42:04;18.52;54.09
79491;SHT31;68950;53.098;18.032;2023-05-08T03:44:31;18.52;54.10
79491;SHT31;68950;53.098;18.032;2023-05-08T03:46:59;18.52;54.10
79491;SHT31;68950;53.098;18.032;2023-05-08T03:49:27;18.52;54.10
79491;SHT31;68950;53.098;18.032;2023-05-08T03:51:56;18.52;54.10
79491;SHT31;68950;53.098;18.032;2023-05-08T03:54:23;18.52;54.10
79491;SHT31;68950;53.098;18.032;2023-05-08T03:56:51;18.53;54.10
79491;SHT31;68950;53.098;18.032;2023-05-08T03:59:33;18.53;54.10
79491;SHT31;68950;53.098;18.032;2023-05-08T04:08:38;18.52;54.10
79491;SHT31;68950;53.098;18.032;2023-05-08T04:11:29;18.53;54.10
79491;SHT31;68950;53.098;18.032;2023-05-08T04:14:03;18.53;54.10
79491;SHT31;68950;53.098;18.032;2023-05-08T04:16:36;18.53;54.10
79491;SHT31;68950;53.098;18.032;2023-05-08T04:19:12;18.53;54.10
79491;SHT31;68950;53.098;18.032;2023-05-08T04:21:45;18.54;54.10
79491;SHT31;68950;53.098;18.032;2023-05-08T04:24:16;18.55;54.10
79491;SHT31;68950;53.098;18.032;2023-05-08T04:26:45;18.55;54.10
79491;SHT31;68950;53.098;18.032;2023-05-08T04:29:11;18.55;54.11
79491;SHT31;68950;53.098;18.032;2023-05-08T04:31:39;18.55;54.11
79491;SHT31;68950;53.098;18.032;2023-05-08T04:34:07;18.55;54.10
79491;SHT31;68950;53.098;18.032;2023-05-08T04:36:34;18.56;54.10
79491;SHT31;68950;53.098;18.032;2023-05-08T04:39:02;18.56;54.10
79491;SHT31;68950;53.098;18.032;2023-05-08T04:41:29;18.56;54.11
79491;SHT31;68950;53.098;18.032;2023-05-08T04:43:56;18.56;54.11
79491;SHT31;68950;53.098;18.032;2023-05-08T04:46:22;18.56;54.10
79491;SHT31;68950;53.098;18.032;2023-05-08T04:48:49;18.57;54.10
79491;SHT31;68950;53.098;18.032;2023-05-08T04:51:16;18.57;54.10
79491;SHT31;68950;53.098;18.032;2023-05-08T04:53:43;18.57;54.10
79491;SHT31;68950;53.098;18.032;2023-05-08T04:56:10;18.57;54.10
79491;SHT31;68950;53.098;18.032;2023-05-08T04:58:36;18.58;54.11
79491;SHT31;68950;53.098;18.032;2023-05-08T05:01:03;18.58;54.11
79491;SHT31;68950;53.098;18.032;2023-05-08T05:03:30;18.58;54.10
79491;SHT31;68950;53.098;18.032;2023-05-08T05:05:57;18.59;54.10
79491;SHT31;68950;53.098;18.032;2023-05-08T05:08:25;18.59;54.11
79491;SHT31;68950;53.098;18.032;2023-05-08T05:10:52;18.60;54.10
79491;SHT31;68950;53.098;18.032;2023-05-08T05:13:18;18.60;54.10
79491;SHT31;68950;53.098;18.032;2023-05-08T05:15:45;18.61;54.10
79491;SHT31;68950;53.098;18.032;2023-05-08T05:18:12;18.61;54.10
79491;SHT31;68950;53.098;18.032;2023-05-08T05:20:38;18.61;54.10
79491;SHT31;68950;53.098;18.032;2023-05-08T05:23:05;18.62;54.10
79491;SHT31;68950;53.098;18.032;2023-05-08T05:25:32;18.62;54.10
79491;SHT31;68950;53.098;18.032;2023-05-08T05:27:59;18.63;54.10
79491;SHT31;68950;53.098;18.032;2023-05-08T05:30:27;18.63;54.10
79491;SHT31;68950;53.098;18.032;2023-05-08T05:32:53;18.63;54.10
79491;SHT31;68950;53.098;18.032;2023-05-08T05:35:20;18.63;54.10
79491;SHT31;68950;53.098;18.032;2023-05-08T05:37:47;18.64;54.10
79491;SHT31;68950;53.098;18.032;2023-05-08T05:40:13;18.65;54.10
79491;SHT31;68950;53.098;18.032;2023-05-08T05:42:40;18.65;54.10
79491;SHT31;68950;53.098;18.032;2023-05-08T05:45:07;18.66;54.10
79491;SHT31;68950;53.098;18.032;2023-05-08T05:47:34;18.66;54.10
79491;SHT31;68950;53.098;18.032;2023-05-08T05:50:01;18.66;54.10
79491;SHT31;68950;53.098;18.032;2023-05-08T05:52:28;18.67;54.10
79491;SHT31;68950;53.098;18.032;2023-05-08T05:54:54;18.68;54.07
79491;SHT31;68950;53.098;18.032;2023-05-08T05:57:21;18.69;54.09
79491;SHT31;68950;53.098;18.032;2023-05-08T05:59:47;18.69;54.10
79491;SHT31;68950;53.098;18.032;2023-05-08T06:02:14;18.69;54.10
79491;SHT31;68950;53.098;18.032;2023-05-08T06:04:43;18.70;54.08
79491;SHT31;68950;53.098;18.032;2023-05-08T06:07:10;18.71;54.09
79491;SHT31;68950;53.098;18.032;2023-05-08T06:09:36;18.71;54.09
79491;SHT31;68950;53.098;18.032;2023-05-08T06:12:03;18.72;54.06
79491;SHT31;68950;53.098;18.032;2023-05-08T06:14:30;18.72;54.10
79491;SHT31;68950;53.098;18.032;2023-05-08T06:16:56;18.73;54.07
79491;SHT31;68950;53.098;18.032;2023-05-08T06:19:23;18.73;54.06
79491;SHT31;68950;53.098;18.032;2023-05-08T06:21:50;18.74;54.03
79491;SHT31;68950;53.098;18.032;2023-05-08T06:24:17;18.75;54.03
79491;SHT31;68950;53.098;18.032;2023-05-08T06:26:43;18.76;54.00
79491;SHT31;68950;53.098;18.032;2023-05-08T06:29:11;18.76;54.01
79491;SHT31;68950;53.098;18.032;2023-05-08T06:31:38;18.77;54.01
79491;SHT31;68950;53.098;18.032;2023-05-08T06:34:05;18.77;54.02
79491;SHT31;68950;53.098;18.032;2023-05-08T06:36:31;18.77;54.00
79491;SHT31;68950;53.098;18.032;2023-05-08T06:38:58;18.78;54.00
79491;SHT31;68950;53.098;18.032;2023-05-08T06:41:25;18.79;54.00
79491;SHT31;68950;53.098;18.032;2023-05-08T06:43:52;18.80;54.00
79491;SHT31;68950;53.098;18.032;2023-05-08T06:46:18;18.79;54.00
79491;SHT31;68950;53.098;18.032;2023-05-08T06:48:45;18.80;54.00
79491;SHT31;68950;53.098;18.032;2023-05-08T06:51:11;18.81;54.00
79491;SHT31;68950;53.098;18.032;2023-05-08T06:53:38;18.81;54.00
79491;SHT31;68950;53.098;18.032;2023-05-08T06:56:05;18.82;53.98
79491;SHT31;68950;53.098;18.032;2023-05-08T06:58:32;18.82;54.00
79491;SHT31;68950;53.098;18.032;2023-05-08T07:00:59;18.84;54.00
79491;SHT31;68950;53.098;18.032;2023-05-08T07:03:27;18.84;53.99
79491;SHT31;68950;53.098;18.032;2023-05-08T07:05:54;18.84;53.99
79491;SHT31;68950;53.098;18.032;2023-05-08T07:08:21;18.85;53.98
79491;SHT31;68950;53.098;18.032;2023-05-08T07:10:47;18.86;53.97
79491;SHT31;68950;53.098;18.032;2023-05-08T07:13:15;18.86;53.96
79491;SHT31;68950;53.098;18.032;2023-05-08T07:15:45;18.86;53.96
79491;SHT31;68950;53.098;18.032;2023-05-08T07:18:11;18.87;53.94
79491;SHT31;68950;53.098;18.032;2023-05-08T07:20:38;18.89;53.91
79491;SHT31;68950;53.098;18.032;2023-05-08T07:23:04;18.89;53.90
79491;SHT31;68950;53.098;18.032;2023-05-08T07:25:32;18.89;53.90
79491;SHT31;68950;53.098;18.032;2023-05-08T07:27:58;18.89;53.91
79491;SHT31;68950;53.098;18.032;2023-05-08T07:30:25;18.90;53.90
79491;SHT31;68950;53.098;18.032;2023-05-08T07:32:51;18.90;53.90
79491;SHT31;68950;53.098;18.032;2023-05-08T07:35:18;18.90;53.89
79491;SHT31;68950;53.098;18.032;2023-05-08T07:37:45;18.91;53.90
79491;SHT31;68950;53.098;18.032;2023-05-08T07:40:12;18.92;53.90
79491;SHT31;68950;53.098;18.032;2023-05-08T07:42:40;18.92;53.90
79491;SHT31;68950;53.098;18.032;2023-05-08T07:45:08;18.92;53.88
79491;SHT31;68950;53.098;18.032;2023-05-08T07:47:37;18.93;53.87
79491;SHT31;68950;53.098;18.032;2023-05-08T07:50:04;18.94;53.87
79491;SHT31;68950;53.098;18.032;2023-05-08T07:52:32;18.94;53.86
79491;SHT31;68950;53.098;18.032;2023-05-08T07:54:58;18.95;53.83
79491;SHT31;68950;53.098;18.032;2023-05-08T07:57:25;18.96;53.81
79491;SHT31;68950;53.098;18.032;2023-05-08T07:59:52;18.97;53.80
79491;SHT31;68950;53.098;18.032;2023-05-08T08:02:18;18.96;53.80
79491;SHT31;68950;53.098;18.032;2023-05-08T08:04:45;18.97;53.80
79491;SHT31;68950;53.098;18.032;2023-05-08T08:07:11;18.98;53.80
79491;SHT31;68950;53.098;18.032;2023-05-08T08:09:38;18.98;53.80
79491;SHT31;68950;53.098;18.032;2023-05-08T08:12:04;18.99;53.80
79491;SHT31;68950;53.098;18.032;2023-05-08T08:14:31;18.98;53.80
79491;SHT31;68950;53.098;18.032;2023-05-08T08:16:58;18.99;53.80
79491;SHT31;68950;53.098;18.032;2023-05-08T08:19:24;19.00;53.77
79491;SHT31;68950;53.098;18.032;2023-05-08T08:21:51;18.99;53.74
79491;SHT31;68950;53.098;18.032;2023-05-08T08:24:18;19.02;53.72
79491;SHT31;68950;53.098;18.032;2023-05-08T08:26:44;19.01;53.72
79491;SHT31;68950;53.098;18.032;2023-05-08T08:29:11;19.02;53.70
79491;SHT31;68950;53.098;18.032;2023-05-08T08:31:38;19.02;53.70
79491;SHT31;68950;53.098;18.032;2023-05-08T08:34:04;19.03;53.70
79491;SHT31;68950;53.098;18.032;2023-05-08T08:36:31;19.03;53.70
79491;SHT31;68950;53.098;18.032;2023-05-08T08:38:57;19.04;53.70
79491;SHT31;68950;53.098;18.032;2023-05-08T08:41:24;19.04;53.70
79491;SHT31;68950;53.098;18.032;2023-05-08T08:43:56;19.04;53.68
79491;SHT31;68950;53.098;18.032;2023-05-08T08:46:24;19.06;53.67
79491;SHT31;68950;53.098;18.032;2023-05-08T08:48:54;19.06;53.65
79491;SHT31;68950;53.098;18.032;2023-05-08T08:51:31;19.06;53.63
79491;SHT31;68950;53.098;18.032;2023-05-08T08:54:10;19.07;53.61
79491;SHT31;68950;53.098;18.032;2023-05-08T08:56:40;19.08;53.61
79491;SHT31;68950;53.098;18.032;2023-05-08T08:59:10;19.08;53.61
79491;SHT31;68950;53.098;18.032;2023-05-08T09:01:39;19.09;53.60
79491;SHT31;68950;53.098;18.032;2023-05-08T09:04:10;19.09;53.60
79491;SHT31;68950;53.098;18.032;2023-05-08T09:06:37;19.11;53.60
79491;SHT31;68950;53.098;18.032;2023-05-08T09:09:04;19.11;53.59
79491;SHT31;68950;53.098;18.032;2023-05-08T09:11:30;19.12;53.55
79491;SHT31;68950;53.098;18.032;2023-05-08T09:13:58;19.13;53.57
79491;SHT31;68950;53.098;18.032;2023-05-08T09:16:24;19.13;53.52
79491;SHT31;68950;53.098;18.032;2023-05-08T09:18:53;19.14;53.53
79491;SHT31;68950;53.098;18.032;2023-05-08T09:21:20;19.14;53.51
79491;SHT31;68950;53.098;18.032;2023-05-08T09:23:53;19.15;53.50
79491;SHT31;68950;53.098;18.032;2023-05-08T09:26:35;19.15;53.50
79491;SHT31;68950;53.098;18.032;2023-05-08T09:31:35;19.15;53.50
79491;SHT31;68950;53.098;18.032;2023-05-08T09:37:14;19.15;53.47
79491;SHT31;68950;53.098;18.032;2023-05-08T09:39:40;19.16;53.41
79491;SHT31;68950;53.098;18.032;2023-05-08T09:42:08;19.16;53.41
79491;SHT31;68950;53.098;18.032;2023-05-08T09:44:42;19.17;53.41
79491;SHT31;68950;53.098;18.032;2023-05-08T09:47:18;19.17;53.40
79491;SHT31;68950;53.098;18.032;2023-05-08T09:50:06;19.18;53.40
79491;SHT31;68950;53.098;18.032;2023-05-08T09:52:36;19.20;53.40
79491;SHT31;68950;53.098;18.032;2023-05-08T09:55:05;19.20;53.40
79491;SHT31;68950;53.098;18.032;2023-05-08T09:57:38;19.22;53.38
79491;SHT31;68950;53.098;18.032;2023-05-08T10:00:17;19.22;53.38
79491;SHT31;68950;53.098;18.032;2023-05-08T10:03:00;19.21;53.35
79491;SHT31;68950;53.098;18.032;2023-05-08T10:05:29;19.21;53.36
79491;SHT31;68950;53.098;18.032;2023-05-08T10:07:58;19.22;53.30
79491;SHT31;68950;53.098;18.032;2023-05-08T10:10:47;19.22;53.32
79491;SHT31;68950;53.098;18.032;2023-05-08T10:13:13;19.23;53.30
79491;SHT31;68950;53.098;18.032;2023-05-08T10:15:43;19.22;53.30
79491;SHT31;68950;53.098;18.032;2023-05-08T10:18:11;19.25;53.30
79491;SHT31;68950;53.098;18.032;2023-05-08T10:20:41;19.26;53.30
79491;SHT31;68950;53.098;18.032;2023-05-08T10:23:15;19.28;53.30
79491;SHT31;68950;53.098;18.032;2023-05-08T10:25:44;19.31;53.30
79491;SHT31;68950;53.098;18.032;2023-05-08T10:31:27;19.37;53.28
79491;SHT31;68950;53.098;18.032;2023-05-08T10:33:55;19.39;53.24
79491;SHT31;68950;53.098;18.032;2023-05-08T10:36:29;19.41;53.23
79491;SHT31;68950;53.098;18.032;2023-05-08T10:38:57;19.42;53.24
79491;SHT31;68950;53.098;18.032;2023-05-08T10:41:24;19.43;53.22
79491;SHT31;68950;53.098;18.032;2023-05-08T10:43:53;19.42;53.21
79491;SHT31;68950;53.098;18.032;2023-05-08T10:46:21;19.43;53.20
79491;SHT31;68950;53.098;18.032;2023-05-08T10:58:01;19.42;53.18
79491;SHT31;68950;53.098;18.032;2023-05-08T11:03:27;19.42;53.12
79491;SHT31;68950;53.098;18.032;2023-05-08T11:05:56;19.43;53.10
79491;SHT31;68950;53.098;18.032;2023-05-08T11:08:25;19.42;53.10
79491;SHT31;68950;53.098;18.032;2023-05-08T11:13:26;19.42;53.10
79491;SHT31;68950;53.098;18.032;2023-05-08T11:15:59;19.42;53.09
79491;SHT31;68950;53.098;18.032;2023-05-08T11:18:26;19.43;53.06
79491;SHT31;68950;53.098;18.032;2023-05-08T11:20:56;19.43;53.04
79491;SHT31;68950;53.098;18.032;2023-05-08T11:23:34;19.42;53.03
79491;SHT31;68950;53.098;18.032;2023-05-08T11:26:02;19.42;53.01
79491;SHT31;68950;53.098;18.032;2023-05-08T11:28:55;19.43;53.00
79491;SHT31;68950;53.098;18.032;2023-05-08T11:31:22;19.44;53.00
79491;SHT31;68950;53.098;18.032;2023-05-08T11:33:49;19.44;53.00
79491;SHT31;68950;53.098;18.032;2023-05-08T11:36:17;19.44;52.97
79491;SHT31;68950;53.098;18.032;2023-05-08T11:41:44;19.45;52.99
79491;SHT31;68950;53.098;18.032;2023-05-08T11:44:17;19.46;52.98
79491;SHT31;68950;53.098;18.032;2023-05-08T11:46:49;19.47;52.96
79491;SHT31;68950;53.098;18.032;2023-05-08T11:49:22;19.46;52.95
79491;SHT31;68950;53.098;18.032;2023-05-08T11:51:51;19.46;52.92
79491;SHT31;68950;53.098;18.032;2023-05-08T11:54:23;19.50;52.91
79491;SHT31;68950;53.098;18.032;2023-05-08T11:56:51;19.52;52.90
79491;SHT31;68950;53.098;18.032;2023-05-08T11:59:21;19.55;52.90
79491;SHT31;68950;53.098;18.032;2023-05-08T12:01:48;19.56;52.90
79491;SHT31;68950;53.098;18.032;2023-05-08T12:04:16;19.57;52.90
79491;SHT31;68950;53.098;18.032;2023-05-08T12:06:42;19.56;52.90
79491;SHT31;68950;53.098;18.032;2023-05-08T12:09:11;19.57;52.90
79491;SHT31;68950;53.098;18.032;2023-05-08T12:11:43;19.58;52.88
79491;SHT31;68950;53.098;18.032;2023-05-08T12:14:11;19.58;52.89
79491;SHT31;68950;53.098;18.032;2023-05-08T12:16:40;19.59;52.88
79491;SHT31;68950;53.098;18.032;2023-05-08T12:19:10;19.59;52.83
79491;SHT31;68950;53.098;18.032;2023-05-08T12:21:44;19.60;52.84
79491;SHT31;68950;53.098;18.032;2023-05-08T12:24:14;19.60;52.81
79491;SHT31;68950;53.098;18.032;2023-05-08T12:26:47;19.61;52.80
79491;SHT31;68950;53.098;18.032;2023-05-08T12:29:17;19.62;52.80
79491;SHT31;68950;53.098;18.032;2023-05-08T12:31:44;19.63;52.80
79491;SHT31;68950;53.098;18.032;2023-05-08T12:34:12;19.63;52.80
79491;SHT31;68950;53.098;18.032;2023-05-08T12:36:39;19.63;52.79
79491;SHT31;68950;53.098;18.032;2023-05-08T12:39:13;19.64;52.80
79491;SHT31;68950;53.098;18.032;2023-05-08T12:41:46;19.65;52.79
79491;SHT31;68950;53.098;18.032;2023-05-08T12:44:24;19.66;52.78
79491;SHT31;68950;53.098;18.032;2023-05-08T12:46:52;19.67;52.78
79491;SHT31;68950;53.098;18.032;2023-05-08T12:49:24;19.67;52.77
79491;SHT31;68950;53.098;18.032;2023-05-08T12:52:04;19.68;52.77
79491;SHT31;68950;53.098;18.032;2023-05-08T12:54:35;19.68;52.78
79491;SHT31;68950;53.098;18.032;2023-05-08T12:57:17;19.69;52.72
79491;SHT31;68950;53.098;18.032;2023-05-08T12:59:47;19.70;52.73
79491;SHT31;68950;53.098;18.032;2023-05-08T13:02:18;19.70;52.70
79491;SHT31;68950;53.098;18.032;2023-05-08T13:04:52;19.71;52.71
79491;SHT31;68950;53.098;18.032;2023-05-08T13:07:21;19.71;52.72
79491;SHT31;68950;53.098;18.032;2023-05-08T13:09:54;19.72;52.70
79491;SHT31;68950;53.098;18.032;2023-05-08T13:12:24;19.71;52.70
79491;SHT31;68950;53.098;18.032;2023-05-08T13:14:51;19.71;52.70
79491;SHT31;68950;53.098;18.032;2023-05-08T13:17:18;19.71;52.70
79491;SHT31;68950;53.098;18.032;2023-05-08T13:19:44;19.72;52.70
79491;SHT31;68950;53.098;18.032;2023-05-08T13:22:11;19.74;52.70
79491;SHT31;68950;53.098;18.032;2023-05-08T13:24:38;19.74;52.70
79491;SHT31;68950;53.098;18.032;2023-05-08T13:27:04;19.75;52.70
79491;SHT31;68950;53.098;18.032;2023-05-08T13:29:31;19.75;52.70
79491;SHT31;68950;53.098;18.032;2023-05-08T13:31:57;19.76;52.70
79491;SHT31;68950;53.098;18.032;2023-05-08T13:34:24;19.77;52.68
79491;SHT31;68950;53.098;18.032;2023-05-08T13:36:50;19.78;52.66
79491;SHT31;68950;53.098;18.032;2023-05-08T13:39:18;19.78;52.68
79491;SHT31;68950;53.098;18.032;2023-05-08T13:41:44;19.79;52.66
79491;SHT31;68950;53.098;18.032;2023-05-08T13:44:11;19.81;52.66
79491;SHT31;68950;53.098;18.032;2023-05-08T13:46:37;19.82;52.67
79491;SHT31;68950;53.098;18.032;2023-05-08T13:49:04;19.84;52.64
79491;SHT31;68950;53.098;18.032;2023-05-08T13:51:30;19.87;52.62
79491;SHT31;68950;53.098;18.032;2023-05-08T13:53:57;19.89;52.63
79491;SHT31;68950;53.098;18.032;2023-05-08T13:56:23;19.93;52.62
79491;SHT31;68950;53.098;18.032;2023-05-08T13:58:51;19.97;52.63
79491;SHT31;68950;53.098;18.032;2023-05-08T14:01:17;20.04;52.64
79491;SHT31;68950;53.098;18.032;2023-05-08T14:03:44;20.11;52.64
79491;SHT31;68950;53.098;18.032;2023-05-08T14:06:11;20.20;52.63
79491;SHT31;68950;53.098;18.032;2023-05-08T14:08:37;20.36;52.65
79491;SHT31;68950;53.098;18.032;2023-05-08T14:11:04;20.59;52.68
79491;SHT31;68950;53.098;18.032;2023-05-08T14:13:31;20.80;52.69
79491;SHT31;68950;53.098;18.032;2023-05-08T14:15:57;21.06;52.70
79491;SHT31;68950;53.098;18.032;2023-05-08T14:18:24;21.36;52.70
79491;SHT31;68950;53.098;18.032;2023-05-08T14:20:50;21.68;52.70
79491;SHT31;68950;53.098;18.032;2023-05-08T14:23:17;21.96;52.70
79491;SHT31;68950;53.098;18.032;2023-05-08T14:25:44;22.17;52.70
79491;SHT31;68950;53.098;18.032;2023-05-08T14:28:10;22.03;52.66
79491;SHT31;68950;53.098;18.032;2023-05-08T14:30:37;21.99;52.60
79491;SHT31;68950;53.098;18.032;2023-05-08T14:33:03;21.94;52.53
79491;SHT31;68950;53.098;18.032;2023-05-08T14:35:30;22.17;52.51
79491;SHT31;68950;53.098;18.032;2023-05-08T14:37:56;22.40;52.50
79491;SHT31;68950;53.098;18.032;2023-05-08T14:40:23;22.57;52.39
79491;SHT31;68950;53.098;18.032;2023-05-08T14:42:49;22.65;52.37
79491;SHT31;68950;53.098;18.032;2023-05-08T14:45:16;22.67;52.31
79491;SHT31;68950;53.098;18.032;2023-05-08T14:47:42;22.62;52.19
79491;SHT31;68950;53.098;18.032;2023-05-08T14:50:09;22.59;52.11
79491;SHT31;68950;53.098;18.032;2023-05-08T14:52:36;22.56;52.05
79491;SHT31;68950;53.098;18.032;2023-05-08T14:55:03;22.44;51.98
79491;SHT31;68950;53.098;18.032;2023-05-08T14:57:31;22.22;51.85
79491;SHT31;68950;53.098;18.032;2023-05-08T14:59:57;22.06;51.76
79491;SHT31;68950;53.098;18.032;2023-05-08T15:02:24;21.92;51.69
79491;SHT31;68950;53.098;18.032;2023-05-08T15:04:50;21.83;51.59
79491;SHT31;68950;53.098;18.032;2023-05-08T15:07:17;21.73;51.52
79491;SHT31;68950;53.098;18.032;2023-05-08T15:09:43;21.68;51.46
79491;SHT31;68950;53.098;18.032;2023-05-08T15:12:10;21.65;51.39
79491;SHT31;68950;53.098;18.032;2023-05-08T15:14:37;21.61;51.33
79491;SHT31;68950;53.098;18.032;2023-05-08T15:17:03;21.56;51.26
79491;SHT31;68950;53.098;18.032;2023-05-08T15:19:30;21.54;51.20
79491;SHT31;68950;53.098;18.032;2023-05-08T15:21:56;21.50;51.16
79491;SHT31;68950;53.098;18.032;2023-05-08T15:24:23;21.48;51.10
79491;SHT31;68950;53.098;18.032;2023-05-08T15:26:50;21.48;51.07
79491;SHT31;68950;53.098;18.032;2023-05-08T15:29:16;21.45;51.01
79491;SHT31;68950;53.098;18.032;2023-05-08T15:31:43;21.45;51.00
79491;SHT31;68950;53.098;18.032;2023-05-08T15:34:09;21.45;50.94
79491;SHT31;68950;53.098;18.032;2023-05-08T15:36:36;21.44;50.90
79491;SHT31;68950;53.098;18.032;2023-05-08T15:39:03;21.44;50.90
79491;SHT31;68950;53.098;18.032;2023-05-08T15:41:29;21.45;50.87
79491;SHT31;68950;53.098;18.032;2023-05-08T15:43:56;21.46;50.83
79491;SHT31;68950;53.098;18.032;2023-05-08T15:46:23;21.47;50.81
79491;SHT31;68950;53.098;18.032;2023-05-08T15:48:49;21.49;50.80
79491;SHT31;68950;53.098;18.032;2023-05-08T15:51:16;21.52;50.78
79491;SHT31;68950;53.098;18.032;2023-05-08T15:53:42;21.55;50.79
